Afon Alaw — 2FCZ7 — position and weather

sailwx.info

Track history (hours):
 
Tides and Currents Weather Stations Pressure Air Temp Water Temp Dewpoint Dewpoint Depression Visibility Wind Speed Wind Dir Waves Ship Positions

Afon Alaw

Last reported at 2016-Apr-30 00:33 UTC. Time now 2016-Apr-30 01:25 UTC.
Position N 51°23' E 002°31'.

Length 25 m; draft 2.8 m.

Type: Tug. MMSI: 235090202.

Date/timePositionNaut miles runAvg speedWind from/ knotsBaromVisibWave heightAir tempDewpointWater temp
2016-Apr-30 00:33N 51°23' E 002°31'7 6.5
2016-Apr-29 23:32N 51°23' E 002°42'7 6.1
2016-Apr-29 22:28N 51°24' E 002°52'5 5.6
2016-Apr-29 21:32N 51°24' E 003°01'5 5.4
2016-Apr-29 20:33N 51°24' E 003°09'6 5.5
2016-Apr-29 19:33N 51°25' E 003°18'5 5.4
2016-Apr-29 18:33N 51°25' E 003°27'5 5.0
2016-Apr-29 17:33N 51°26' E 003°35'4 4.4
2016-Apr-29 16:33N 51°28' E 003°41'1 1.2
2016-Apr-29 15:30N 51°28' E 003°43'0 0.0
2016-Apr-29 14:30N 51°28' E 003°43'0 0.1
2016-Apr-29 13:33N 51°28' E 003°43'0 0.1
2016-Apr-29 12:33N 51°28' E 003°43'0 0.0
2016-Apr-29 11:15N 51°28' E 003°43'0 0.0
2016-Apr-29 10:33N 51°28' E 003°43'0 0.0
2016-Apr-29 09:33N 51°28' E 003°43'0 0.0
2016-Apr-29 08:33N 51°28' E 003°43'1 0.7
2016-Apr-29 07:33N 51°29' E 003°42'0 0.0
2016-Apr-29 06:33N 51°29' E 003°42'0 0.0
2016-Apr-29 05:26N 51°29' E 003°42'0 0.0
2016-Apr-29 04:32N 51°29' E 003°42'0 0.0
2016-Apr-29 03:32N 51°29' E 003°42'0 0.0
2016-Apr-29 02:32N 51°29' E 003°42'0 0.0
2016-Apr-29 01:31N 51°29' E 003°42'1 0.6
2016-Apr-29 00:33N 51°28' E 003°43'4 3.9
2016-Apr-28 23:33N 51°26' E 003°37'6 6.4
2016-Apr-28 22:33N 51°25' E 003°27'6 5.7
2016-Apr-28 21:33N 51°24' E 003°18'6 6.2
2016-Apr-28 20:32N 51°22' E 003°08'7 7.3
2016-Apr-28 19:32N 51°21' E 002°57'9 8.2
2016-Apr-28 18:26N 51°21' E 002°42'8 8.6
2016-Apr-28 17:33N 51°22' E 002°30'10 9.2
2016-Apr-28 16:31N 51°17' E 002°17'9 9.8
2016-Apr-28 15:33N 51°12' E 002°04'9 9.4
2016-Apr-28 14:33N 51°08' E 001°51'9 9.1
2016-Apr-28 13:33N 51°01' E 001°40'66 6.5
2016-Apr-28 03:26N 50°23' E 000°15'7 7.7
2016-Apr-28 02:32N 50°22' E 000°04'9 7.9
2016-Apr-28 01:22N 50°24' W 000°10'7 8.7
2016-Apr-28 00:30N 50°28' W 000°20'8 8.8
2016-Apr-27 23:33N 50°32' W 000°31'9 9.3
2016-Apr-27 22:33N 50°37' W 000°44'10 9.6
2016-Apr-27 21:32N 50°42' W 000°57'9 8.9
2016-Apr-27 20:33N 50°46' W 001°09'8 8.3
2016-Apr-27 19:33N 50°51' W 001°20'4 0.3
2016-Apr-27 05:29N 50°53' W 001°24'0 0.0
2016-Apr-26 14:06N 50°53' W 001°24'0 0.0
2016-Apr-26 13:33N 50°53' W 001°24'0 0.0
2016-Apr-26 12:24N 50°53' W 001°24'0 0.0
2016-Apr-25 09:33N 50°53' W 001°24'0 0.0
2016-Apr-25 08:15N 50°53' W 001°24'0 0.0
2016-Apr-25 06:33N 50°53' W 001°24'0 0.0
2016-Apr-25 03:31N 50°53' W 001°24'0 0.0
2016-Apr-25 00:10N 50°53' W 001°24'0 0.0
2016-Apr-24 20:28N 50°53' W 001°24'0 0.0
2016-Apr-24 19:16N 50°53' W 001°24'0 0.0
2016-Apr-24 18:31N 50°53' W 001°24'0 0.0
2016-Apr-24 17:31N 50°53' W 001°24'0 0.0
2016-Apr-24 16:13N 50°53' W 001°24'0 0.0
2016-Apr-24 09:33N 50°53' W 001°24'0 0.0
2016-Apr-24 08:27N 50°53' W 001°24'0 0.0
2016-Apr-24 07:33N 50°53' W 001°24'0 0.0
2016-Apr-24 06:32N 50°53' W 001°24'0 0.0
2016-Apr-24 03:28N 50°53' W 001°24'0 0.0
2016-Apr-24 00:07N 50°53' W 001°24'0 0.0
2016-Apr-23 22:19N 50°53' W 001°24'0 0.0
2016-Apr-23 21:22N 50°53' W 001°24'0 0.0
2016-Apr-23 20:24N 50°53' W 001°24'0 0.0
2016-Apr-23 19:30N 50°53' W 001°24'0 0.0
2016-Apr-23 18:33N 50°53' W 001°24'0 0.0
2016-Apr-23 17:06N 50°53' W 001°24'0 0.0
2016-Apr-23 16:06N 50°53' W 001°24'0 0.0
2016-Apr-23 15:33N 50°53' W 001°24'0 0.0
2016-Apr-23 07:29N 50°53' W 001°24'0 0.0
2016-Apr-23 06:32N 50°53' W 001°24'0 0.0
2016-Apr-23 05:30N 50°53' W 001°24'0 0.0
2016-Apr-23 04:32N 50°53' W 001°24'0 0.0
2016-Apr-23 03:29N 50°53' W 001°24'0 0.0
2016-Apr-23 02:31N 50°53' W 001°24'0 0.0
2016-Apr-23 01:31N 50°53' W 001°24'0 0.0
2016-Apr-23 00:25N 50°53' W 001°24'0 0.0
2016-Apr-22 23:31N 50°53' W 001°24'0 0.0
2016-Apr-22 22:31N 50°53' W 001°24'0 0.0
2016-Apr-22 21:22N 50°53' W 001°24'0 0.0
2016-Apr-22 20:16N 50°53' W 001°24'0 0.0
2016-Apr-22 19:28N 50°53' W 001°24'0 0.0
2016-Apr-22 17:11N 50°53' W 001°24'0 0.0
2016-Apr-22 15:16N 50°53' W 001°24'0 0.0
2016-Apr-22 14:25N 50°53' W 001°24'0 0.0
2016-Apr-22 13:32N 50°53' W 001°24'0 0.0
2016-Apr-22 12:32N 50°53' W 001°24'0 0.0
2016-Apr-22 11:29N 50°53' W 001°24'0 0.0
2016-Apr-22 10:32N 50°53' W 001°24'0 0.0
2016-Apr-22 09:33N 50°53' W 001°24'0 0.0
2016-Apr-22 08:32N 50°53' W 001°24'0 0.0
2016-Apr-22 07:32N 50°53' W 001°24'0 0.0
2016-Apr-22 06:31N 50°53' W 001°24'0 0.0
2016-Apr-22 05:33N 50°53' W 001°24'0 0.0
2016-Apr-22 04:04N 50°53' W 001°24'0 0.0
2016-Apr-22 03:28N 50°53' W 001°24'0 0.0
2016-Apr-22 02:30N 50°53' W 001°24'0 0.0
2016-Apr-22 01:18N 50°53' W 001°24'0 0.0
2016-Apr-22 00:29N 50°53' W 001°24'0 0.0
2016-Apr-21 23:29N 50°53' W 001°24'0 0.0
2016-Apr-21 22:29N 50°53' W 001°24'0 0.0
2016-Apr-21 21:32N 50°53' W 001°24'0 0.0
2016-Apr-21 20:26N 50°53' W 001°24'0 0.0
2016-Apr-21 19:24N 50°53' W 001°24'0 0.0
2016-Apr-21 18:24N 50°53' W 001°24'0 0.0
2016-Apr-21 14:20N 50°53' W 001°24'0 0.0
2016-Apr-21 12:25N 50°53' W 001°24'0 0.0
2016-Apr-21 11:27N 50°53' W 001°24'0 0.0
2016-Apr-21 10:32N 50°53' W 001°24'0 0.0
2016-Apr-21 08:26N 50°53' W 001°24'0 0.0
2016-Apr-21 07:23N 50°53' W 001°24'0 0.0
2016-Apr-21 06:23N 50°53' W 001°24'0 0.0
2016-Apr-21 05:26N 50°53' W 001°24'0 0.0
2016-Apr-21 04:05N 50°53' W 001°24'0 0.0
2016-Apr-21 02:29N 50°53' W 001°24'0 0.0
2016-Apr-21 01:32N 50°53' W 001°24'0 0.0
2016-Apr-21 00:26N 50°53' W 001°24'0 0.0
2016-Apr-20 23:33N 50°53' W 001°24'0 0.0
2016-Apr-20 16:04N 50°53' W 001°24'0 0.0
2016-Apr-20 15:10N 50°53' W 001°24'0 0.0
2016-Apr-20 14:31N 50°53' W 001°24'0 0.0
2016-Apr-20 13:22N 50°53' W 001°24'0 0.0
2016-Apr-20 12:25N 50°53' W 001°24'0 0.0
2016-Apr-20 11:25N 50°53' W 001°24'0 0.0
2016-Apr-20 10:31N 50°53' W 001°24'0 0.0
2016-Apr-20 09:12N 50°53' W 001°24'0 0.0
2016-Apr-20 07:32N 50°53' W 001°24'0 0.0
2016-Apr-20 06:26N 50°53' W 001°24'0 0.0
2016-Apr-20 05:31N 50°53' W 001°24'0 0.0
2016-Apr-20 04:32N 50°53' W 001°24'0 0.0
2016-Apr-20 03:19N 50°53' W 001°24'0 0.0
2016-Apr-20 02:28N 50°53' W 001°24'0 0.0
2016-Apr-20 01:27N 50°53' W 001°24'  
Track history (hours):
 
Tides and Currents Weather Stations Pressure Air Temp Water Temp Dewpoint Dewpoint Depression Visibility Wind Speed Wind Dir Waves Ship Positions

Afon Alaw

Last reported at 2016-Apr-30 00:33 UTC. Time now 2016-Apr-30 01:25 UTC.
Position N 51°23' E 002°31'.

Length 25 m; draft 2.8 m.

Type: Tug. MMSI: 235090202.

Date/timePositionNaut miles runAvg speedWind from/ knotsBaromVisibWave heightAir tempDewpointWater temp
2016-Apr-30 00:33N 51°23' E 002°31'7 6.5
2016-Apr-29 23:32N 51°23' E 002°42'7 6.1
2016-Apr-29 22:28N 51°24' E 002°52'5 5.6
2016-Apr-29 21:32N 51°24' E 003°01'5 5.4
2016-Apr-29 20:33N 51°24' E 003°09'6 5.5
2016-Apr-29 19:33N 51°25' E 003°18'5 5.4
2016-Apr-29 18:33N 51°25' E 003°27'5 5.0
2016-Apr-29 17:33N 51°26' E 003°35'4 4.4
2016-Apr-29 16:33N 51°28' E 003°41'1 1.2
2016-Apr-29 15:30N 51°28' E 003°43'0 0.0
2016-Apr-29 14:30N 51°28' E 003°43'0 0.1
2016-Apr-29 13:33N 51°28' E 003°43'0 0.1
2016-Apr-29 12:33N 51°28' E 003°43'0 0.0
2016-Apr-29 11:15N 51°28' E 003°43'0 0.0
2016-Apr-29 10:33N 51°28' E 003°43'0 0.0
2016-Apr-29 09:33N 51°28' E 003°43'0 0.0
2016-Apr-29 08:33N 51°28' E 003°43'1 0.7
2016-Apr-29 07:33N 51°29' E 003°42'0 0.0
2016-Apr-29 06:33N 51°29' E 003°42'0 0.0
2016-Apr-29 05:26N 51°29' E 003°42'0 0.0
2016-Apr-29 04:32N 51°29' E 003°42'0 0.0
2016-Apr-29 03:32N 51°29' E 003°42'0 0.0
2016-Apr-29 02:32N 51°29' E 003°42'0 0.0
2016-Apr-29 01:31N 51°29' E 003°42'1 0.6
2016-Apr-29 00:33N 51°28' E 003°43'4 3.9
2016-Apr-28 23:33N 51°26' E 003°37'6 6.4
2016-Apr-28 22:33N 51°25' E 003°27'6 5.7
2016-Apr-28 21:33N 51°24' E 003°18'6 6.2
2016-Apr-28 20:32N 51°22' E 003°08'7 7.3
2016-Apr-28 19:32N 51°21' E 002°57'9 8.2
2016-Apr-28 18:26N 51°21' E 002°42'8 8.6
2016-Apr-28 17:33N 51°22' E 002°30'10 9.2
2016-Apr-28 16:31N 51°17' E 002°17'9 9.8
2016-Apr-28 15:33N 51°12' E 002°04'9 9.4
2016-Apr-28 14:33N 51°08' E 001°51'9 9.1
2016-Apr-28 13:33N 51°01' E 001°40'66 6.5
2016-Apr-28 03:26N 50°23' E 000°15'7 7.7
2016-Apr-28 02:32N 50°22' E 000°04'9 7.9
2016-Apr-28 01:22N 50°24' W 000°10'7 8.7
2016-Apr-28 00:30N 50°28' W 000°20'8 8.8
2016-Apr-27 23:33N 50°32' W 000°31'9 9.3
2016-Apr-27 22:33N 50°37' W 000°44'10 9.6
2016-Apr-27 21:32N 50°42' W 000°57'9 8.9
2016-Apr-27 20:33N 50°46' W 001°09'8 8.3
2016-Apr-27 19:33N 50°51' W 001°20'4 0.3
2016-Apr-27 05:29N 50°53' W 001°24'0 0.0
2016-Apr-26 14:06N 50°53' W 001°24'0 0.0
2016-Apr-26 13:33N 50°53' W 001°24'0 0.0
2016-Apr-26 12:24N 50°53' W 001°24'0 0.0
2016-Apr-25 09:33N 50°53' W 001°24'0 0.0
2016-Apr-25 08:15N 50°53' W 001°24'0 0.0
2016-Apr-25 06:33N 50°53' W 001°24'0 0.0
2016-Apr-25 03:31N 50°53' W 001°24'0 0.0
2016-Apr-25 00:10N 50°53' W 001°24'0 0.0
2016-Apr-24 20:28N 50°53' W 001°24'0 0.0
2016-Apr-24 19:16N 50°53' W 001°24'0 0.0
2016-Apr-24 18:31N 50°53' W 001°24'0 0.0
2016-Apr-24 17:31N 50°53' W 001°24'0 0.0
2016-Apr-24 16:13N 50°53' W 001°24'0 0.0
2016-Apr-24 09:33N 50°53' W 001°24'0 0.0
2016-Apr-24 08:27N 50°53' W 001°24'0 0.0
2016-Apr-24 07:33N 50°53' W 001°24'0 0.0
2016-Apr-24 06:32N 50°53' W 001°24'0 0.0
2016-Apr-24 03:28N 50°53' W 001°24'0 0.0
2016-Apr-24 00:07N 50°53' W 001°24'0 0.0
2016-Apr-23 22:19N 50°53' W 001°24'0 0.0
2016-Apr-23 21:22N 50°53' W 001°24'0 0.0
2016-Apr-23 20:24N 50°53' W 001°24'0 0.0
2016-Apr-23 19:30N 50°53' W 001°24'0 0.0
2016-Apr-23 18:33N 50°53' W 001°24'0 0.0
2016-Apr-23 17:06N 50°53' W 001°24'0 0.0
2016-Apr-23 16:06N 50°53' W 001°24'0 0.0
2016-Apr-23 15:33N 50°53' W 001°24'0 0.0
2016-Apr-23 07:29N 50°53' W 001°24'0 0.0
2016-Apr-23 06:32N 50°53' W 001°24'0 0.0
2016-Apr-23 05:30N 50°53' W 001°24'0 0.0
2016-Apr-23 04:32N 50°53' W 001°24'0 0.0
2016-Apr-23 03:29N 50°53' W 001°24'0 0.0
2016-Apr-23 02:31N 50°53' W 001°24'0 0.0
2016-Apr-23 01:31N 50°53' W 001°24'0 0.0
2016-Apr-23 00:25N 50°53' W 001°24'0 0.0
2016-Apr-22 23:31N 50°53' W 001°24'0 0.0
2016-Apr-22 22:31N 50°53' W 001°24'0 0.0
2016-Apr-22 21:22N 50°53' W 001°24'0 0.0
2016-Apr-22 20:16N 50°53' W 001°24'0 0.0
2016-Apr-22 19:28N 50°53' W 001°24'0 0.0
2016-Apr-22 17:11N 50°53' W 001°24'0 0.0
2016-Apr-22 15:16N 50°53' W 001°24'0 0.0
2016-Apr-22 14:25N 50°53' W 001°24'0 0.0
2016-Apr-22 13:32N 50°53' W 001°24'0 0.0
2016-Apr-22 12:32N 50°53' W 001°24'0 0.0
2016-Apr-22 11:29N 50°53' W 001°24'0 0.0
2016-Apr-22 10:32N 50°53' W 001°24'0 0.0
2016-Apr-22 09:33N 50°53' W 001°24'0 0.0
2016-Apr-22 08:32N 50°53' W 001°24'0 0.0
2016-Apr-22 07:32N 50°53' W 001°24'0 0.0
2016-Apr-22 06:31N 50°53' W 001°24'0 0.0
2016-Apr-22 05:33N 50°53' W 001°24'0 0.0
2016-Apr-22 04:04N 50°53' W 001°24'0 0.0
2016-Apr-22 03:28N 50°53' W 001°24'0 0.0
2016-Apr-22 02:30N 50°53' W 001°24'0 0.0
2016-Apr-22 01:18N 50°53' W 001°24'0 0.0
2016-Apr-22 00:29N 50°53' W 001°24'0 0.0
2016-Apr-21 23:29N 50°53' W 001°24'0 0.0
2016-Apr-21 22:29N 50°53' W 001°24'0 0.0
2016-Apr-21 21:32N 50°53' W 001°24'0 0.0
2016-Apr-21 20:26N 50°53' W 001°24'0 0.0
2016-Apr-21 19:24N 50°53' W 001°24'0 0.0
2016-Apr-21 18:24N 50°53' W 001°24'0 0.0
2016-Apr-21 14:20N 50°53' W 001°24'0 0.0
2016-Apr-21 12:25N 50°53' W 001°24'0 0.0
2016-Apr-21 11:27N 50°53' W 001°24'0 0.0
2016-Apr-21 10:32N 50°53' W 001°24'0 0.0
2016-Apr-21 08:26N 50°53' W 001°24'0 0.0
2016-Apr-21 07:23N 50°53' W 001°24'0 0.0
2016-Apr-21 06:23N 50°53' W 001°24'0 0.0
2016-Apr-21 05:26N 50°53' W 001°24'0 0.0
2016-Apr-21 04:05N 50°53' W 001°24'0 0.0
2016-Apr-21 02:29N 50°53' W 001°24'0 0.0
2016-Apr-21 01:32N 50°53' W 001°24'0 0.0
2016-Apr-21 00:26N 50°53' W 001°24'0 0.0
2016-Apr-20 23:33N 50°53' W 001°24'0 0.0
2016-Apr-20 16:04N 50°53' W 001°24'0 0.0
2016-Apr-20 15:10N 50°53' W 001°24'0 0.0
2016-Apr-20 14:31N 50°53' W 001°24'0 0.0
2016-Apr-20 13:22N 50°53' W 001°24'0 0.0
2016-Apr-20 12:25N 50°53' W 001°24'0 0.0
2016-Apr-20 11:25N 50°53' W 001°24'0 0.0
2016-Apr-20 10:31N 50°53' W 001°24'0 0.0
2016-Apr-20 09:12N 50°53' W 001°24'0 0.0
2016-Apr-20 07:32N 50°53' W 001°24'0 0.0
2016-Apr-20 06:26N 50°53' W 001°24'0 0.0
2016-Apr-20 05:31N 50°53' W 001°24'0 0.0
2016-Apr-20 04:32N 50°53' W 001°24'0 0.0
2016-Apr-20 03:19N 50°53' W 001°24'0 0.0
2016-Apr-20 02:28N 50°53' W 001°24'0 0.0
2016-Apr-20 01:27N 50°53' W 001°24'  

Dump ship's entire track history